Time;durP1;ratioP1;P1;durP2;ratioP2;P2;SDS_P1;SDS_P2;PMS_P1;PMS_P2;Temp;Humidity;BMP_temperature;BMP_pressure;BME280_temperature;BME280_humidity;BME280_pressure;Samples;Min_cycle;Max_cycle;Signal;HPM_P1;HPM_P2
2021/03/28 04:11:44;;;;;;;1.20;1.20;;;4.40;99.90;;;;;;5517547;23;20635;-71
2021/03/28 04:14:23;;;;;;;1.43;1.43;;;4.40;99.90;;;;;;4915849;29;20203;-71
2021/03/28 04:17:04;;;;;;;1.30;1.30;;;4.40;99.90;;;;;;4915957;29;20262;-71
2021/03/28 04:19:47;;;;;;;1.40;1.40;;;4.40;99.90;;;;;;4915994;29;20229;-71
2021/03/28 04:22:35;;;;;;;1.23;1.23;;;4.40;99.90;;;;;;4899753;29;20235;-73
2021/03/28 04:25:15;;;;;;;1.30;1.30;;;4.40;99.90;;;;;;4897390;29;20259;-73
2021/03/28 04:28:09;;;;;;;1.47;1.47;;;4.50;99.90;;;;;;4897012;29;20207;-73
2021/03/28 04:30:47;;;;;;;1.40;1.40;;;4.50;99.90;;;;;;4896714;29;20227;-74
2021/03/28 04:33:30;;;;;;;1.20;1.20;;;4.40;99.90;;;;;;4896876;29;20206;-73
2021/03/28 04:36:11;;;;;;;1.20;1.20;;;4.50;99.90;;;;;;4896686;29;20211;-74
2021/03/28 04:38:52;;;;;;;1.30;1.30;;;4.50;99.90;;;;;;4896872;29;20234;-73
2021/03/28 04:41:46;;;;;;;1.27;1.27;;;4.50;99.90;;;;;;4896540;29;20640;-74
2021/03/28 04:45:02;;;;;;;1.30;1.30;;;4.50;99.90;;;;;;4896607;29;20231;-74
2021/03/28 04:47:53;;;;;;;1.33;1.33;;;4.50;99.90;;;;;;4896659;29;20621;-74
2021/03/28 04:51:05;;;;;;;1.30;1.30;;;4.60;99.90;;;;;;4896520;29;20669;-74
2021/03/28 04:54:02;;;;;;;1.30;1.30;;;4.50;99.90;;;;;;4896676;29;20741;-74
2021/03/28 04:56:50;;;;;;;1.50;1.50;;;4.50;99.90;;;;;;4896332;29;20208;-74
2021/03/28 04:59:46;;;;;;;1.60;1.60;;;4.50;99.90;;;;;;4896994;29;20211;-73
2021/03/28 05:02:25;;;;;;;1.70;1.70;;;4.60;99.90;;;;;;4896245;29;20274;-74
2021/03/28 05:05:25;;;;;;;1.30;1.30;;;4.60;99.90;;;;;;4896491;29;20258;-74
2021/03/28 05:08:41;;;;;;;1.50;1.50;;;4.70;99.90;;;;;;4896588;29;20211;-77
2021/03/28 05:11:56;;;;;;;1.47;1.47;;;4.70;99.90;;;;;;4896449;29;20267;-72
2021/03/28 05:14:55;;;;;;;1.20;1.20;;;4.70;99.90;;;;;;4839793;29;20259;-73
2021/03/28 05:18:08;;;;;;;1.40;1.40;;;4.70;99.90;;;;;;4880800;29;20261;-74
2021/03/28 05:21:00;;;;;;;1.30;1.30;;;4.70;99.90;;;;;;4898805;29;20235;-73
2021/03/28 05:24:02;;;;;;;1.43;1.43;;;4.80;99.90;;;;;;4899984;29;20239;-73
2021/03/28 05:26:53;;;;;;;1.23;1.23;;;4.80;99.90;;;;;;4899631;29;20473;-74
2021/03/28 05:30:06;;;;;;;1.40;1.40;;;4.90;99.90;;;;;;4899766;29;20211;-74
2021/03/28 05:32:52;;;;;;;1.40;1.40;;;5.00;99.90;;;;;;4895711;29;20673;-75
2021/03/28 05:35:46;;;;;;;1.30;1.30;;;5.10;99.90;;;;;;4899279;29;20672;-76
2021/03/28 05:38:54;;;;;;;1.53;1.53;;;5.20;99.90;;;;;;4899575;29;20211;-75
2021/03/28 05:41:44;;;;;;;1.50;1.50;;;5.40;99.90;;;;;;4899261;29;20231;-75
2021/03/28 05:44:35;;;;;;;1.10;1.10;;;5.60;99.90;;;;;;4899350;29;20227;-75
2021/03/28 05:47:32;;;;;;;1.33;1.33;;;5.80;99.90;;;;;;4899072;29;20211;-75
2021/03/28 05:50:21;;;;;;;1.30;1.30;;;5.90;99.90;;;;;;4899139;29;20271;-75
2021/03/28 05:53:40;;;;;;;1.20;1.20;;;6.00;99.90;;;;;;4899256;29;20267;-75
2021/03/28 05:56:44;;;;;;;1.23;1.23;;;6.10;99.90;;;;;;4898782;29;20259;-75
2021/03/28 05:59:42;;;;;;;1.10;1.10;;;6.10;99.90;;;;;;4898844;29;20271;-74
2021/03/28 06:02:48;;;;;;;1.20;1.20;;;6.10;99.90;;;;;;4898951;29;20238;-74
2021/03/28 06:05:56;;;;;;;1.20;1.20;;;6.20;99.90;;;;;;4855875;29;20299;-75
2021/03/28 06:09:05;;;;;;;1.13;1.13;;;6.40;99.90;;;;;;4884328;29;20207;-75
2021/03/28 06:12:15;;;;;;;1.40;1.40;;;6.50;99.90;;;;;;4898775;29;20287;-75
2021/03/28 06:14:47;;;;;;;1.10;1.10;;;6.60;99.90;;;;;;4898671;29;20251;-77
2021/03/28 06:17:24;;;;;;;1.27;1.27;;;6.80;99.90;;;;;;4898484;29;20219;-75
2021/03/28 06:20:34;;;;;;;1.20;1.20;;;6.90;99.90;;;;;;4898474;29;20732;-75
2021/03/28 06:23:53;;;;;;;1.10;1.10;;;7.00;99.90;;;;;;4898236;29;20696;-75
2021/03/28 06:26:57;;;;;;;1.00;1.00;;;7.00;99.90;;;;;;4898227;29;20670;-75
2021/03/28 06:30:06;;;;;;;1.10;1.10;;;6.90;99.90;;;;;;4898626;29;20211;-75
2021/03/28 06:33:17;;;;;;;1.23;1.23;;;6.90;99.90;;;;;;4898647;29;20231;-75
2021/03/28 06:36:50;;;;;;;0.93;0.93;;;7.10;99.90;;;;;;4898178;29;20270;-75
2021/03/28 06:39:46;;;;;;;1.23;1.23;;;7.10;99.90;;;;;;4898387;29;20263;-74
2021/03/28 06:42:30;;;;;;;1.10;1.10;;;7.30;99.90;;;;;;4898105;29;20237;-72
2021/03/28 06:45:34;;;;;;;1.10;1.10;;;7.30;99.90;;;;;;4898092;29;20259;-75
2021/03/28 06:48:34;;;;;;;1.47;1.47;;;7.40;99.90;;;;;;4898174;29;20215;-75
2021/03/28 06:51:33;;;;;;;1.20;1.20;;;7.40;99.90;;;;;;4888594;29;20756;-75
2021/03/28 06:54:41;;;;;;;1.20;1.20;;;7.40;99.90;;;;;;4897979;29;20207;-75
2021/03/28 06:57:43;;;;;;;1.20;1.20;;;7.50;99.90;;;;;;4898110;29;20211;-74
2021/03/28 07:00:34;;;;;;;1.20;1.20;;;7.50;99.90;;;;;;4879674;29;20216;-73
2021/03/28 07:03:25;;;;;;;1.10;1.10;;;7.60;99.90;;;;;;4866676;29;20224;-75
2021/03/28 07:06:03;;;;;;;1.03;1.03;;;7.80;99.90;;;;;;4896401;29;20207;-74
2021/03/28 07:08:49;;;;;;;1.00;1.00;;;7.80;99.90;;;;;;4906960;29;20675;-74
2021/03/28 07:11:37;;;;;;;1.20;1.20;;;7.90;99.90;;;;;;4877989;29;20661;-74
2021/03/28 07:14:40;;;;;;;1.10;1.10;;;8.00;99.90;;;;;;4862733;29;20228;-74
2021/03/28 07:17:43;;;;;;;1.00;1.00;;;8.10;99.90;;;;;;4877816;29;20625;-74
2021/03/28 07:20:51;;;;;;;1.10;1.10;;;8.10;99.90;;;;;;4878614;29;20207;-74
2021/03/28 07:23:41;;;;;;;1.13;1.13;;;8.30;99.90;;;;;;4817731;29;20243;-74
2021/03/28 07:26:16;;;;;;;0.80;0.80;;;8.50;99.90;;;;;;4877656;29;20271;-75
2021/03/28 07:29:26;;;;;;;1.20;1.20;;;8.50;98.50;;;;;;4878157;29;20208;-74
2021/03/28 07:32:38;;;;;;;1.17;1.17;;;8.40;97.70;;;;;;4877812;29;20244;-74
2021/03/28 07:35:34;;;;;;;1.00;1.00;;;8.50;97.40;;;;;;4877548;29;20267;-74
2021/03/28 07:38:41;;;;;;;1.00;1.00;;;8.60;97.00;;;;;;4877843;29;20212;-75
2021/03/28 07:41:56;;;;;;;1.10;1.10;;;8.60;96.50;;;;;;4877761;29;20227;-75
2021/03/28 07:45:21;;;;;;;0.90;0.90;;;8.70;96.20;;;;;;4799259;29;20235;-74
2021/03/28 07:48:26;;;;;;;1.20;1.20;;;8.90;95.80;;;;;;4801464;29;20206;-75
2021/03/28 07:51:15;;;;;;;0.80;0.80;;;8.90;95.40;;;;;;4877256;29;20271;-72
2021/03/28 07:54:16;;;;;;;1.10;1.10;;;9.00;95.30;;;;;;4877414;29;20566;-73
2021/03/28 07:57:00;;;;;;;0.90;0.90;;;9.20;95.00;;;;;;4877402;29;20215;-74
2021/03/28 07:59:44;;;;;;;0.70;0.70;;;9.60;94.60;;;;;;4877333;29;20613;-74
2021/03/28 08:02:50;;;;;;;0.90;0.90;;;9.80;93.50;;;;;;4882755;29;20639;-75
2021/03/28 08:05:32;;;;;;;0.80;0.80;;;9.70;93.30;;;;;;4884605;29;20207;-75
2021/03/28 08:08:15;;;;;;;0.90;0.90;;;9.80;93.00;;;;;;4889973;29;20625;-76
2021/03/28 08:11:07;;;;;;;0.77;0.77;;;9.90;93.20;;;;;;4896120;29;20705;-76
2021/03/28 08:14:05;;;;;;;0.82;0.82;;;9.90;92.80;;;;;;4896263;29;20203;-76
2021/03/28 08:16:54;;;;;;;0.80;0.80;;;10.00;93.00;;;;;;4896189;29;20235;-77
2021/03/28 08:19:55;;;;;;;0.90;0.90;;;10.00;92.50;;;;;;4896405;29;20213;-77
2021/03/28 08:22:32;;;;;;;0.90;0.90;;;10.20;92.70;;;;;;4871471;29;20592;-75
2021/03/28 08:25:28;;;;;;;0.60;0.60;;;10.20;92.10;;;;;;4895855;29;20239;-76
2021/03/28 08:28:12;;;;;;;0.80;0.80;;;10.40;91.60;;;;;;4894637;29;20673;-76
2021/03/28 08:31:01;;;;;;;0.68;0.68;;;10.60;91.70;;;;;;4895688;29;20231;-76
2021/03/28 08:34:01;;;;;;;0.80;0.80;;;10.60;90.00;;;;;;4896028;29;20212;-76
2021/03/28 08:36:53;;;;;;;0.70;0.70;;;10.60;90.00;;;;;;4895933;29;20211;-76
2021/03/28 08:39:46;;;;;;;0.75;0.75;;;10.50;91.10;;;;;;4895846;29;20207;-77
2021/03/28 08:42:46;;;;;;;0.82;0.82;;;10.60;90.60;;;;;;4898876;29;20230;-76
2021/03/28 08:45:54;;;;;;;0.80;0.80;;;10.90;91.00;;;;;;4895375;29;20211;-76
2021/03/28 08:48:38;;;;;;;0.85;0.85;;;10.80;90.40;;;;;;4895688;29;20684;-75
2021/03/28 08:51:22;;;;;;;0.90;0.90;;;10.90;88.30;;;;;;4895610;29;20231;-76
2021/03/28 08:54:04;;;;;;;0.73;0.73;;;10.80;88.10;;;;;;4895672;29;20257;-74
2021/03/28 08:56:55;;;;;;;0.70;0.70;;;10.80;87.90;;;;;;4899165;29;20219;-74
2021/03/28 08:59:48;;;;;;;0.70;0.70;;;10.90;89.20;;;;;;4899365;29;20212;-75
2021/03/28 09:02:21;;;;;;;0.90;0.90;;;10.70;88.00;;;;;;4899277;29;20262;-75
2021/03/28 09:04:59;;;;;;;0.90;0.90;;;10.50;88.10;;;;;;4899032;29;20232;-77
2021/03/28 09:07:40;;;;;;;0.75;0.75;;;10.50;88.10;;;;;;4900530;29;20259;-77
2021/03/28 09:10:31;;;;;;;0.80;0.80;;;10.50;89.30;;;;;;4900230;29;20644;-76
2021/03/28 09:13:14;;;;;;;0.70;0.70;;;10.60;88.30;;;;;;4902190;29;20617;-79
2021/03/28 09:15:54;;;;;;;0.90;0.90;;;10.70;88.50;;;;;;4900999;29;20637;-79
2021/03/28 09:18:34;;;;;;;0.90;0.90;;;10.70;88.80;;;;;;4900597;29;20211;-77
2021/03/28 09:21:36;;;;;;;0.75;0.75;;;10.60;87.10;;;;;;4900154;29;20231;-76
2021/03/28 09:24:16;;;;;;;1.10;1.10;;;10.70;87.60;;;;;;4900118;29;20227;-76
2021/03/28 09:27:05;;;;;;;0.93;0.93;;;10.80;85.60;;;;;;4899029;29;20211;-77
2021/03/28 09:29:42;;;;;;;0.90;0.90;;;10.90;85.50;;;;;;4899808;29;20218;-77
2021/03/28 09:33:02;;;;;;;0.90;0.90;;;11.10;84.50;;;;;;4900552;29;20295;-77
2021/03/28 09:36:08;;;;;;;0.80;0.80;;;11.20;85.60;;;;;;4824443;29;20219;-77
2021/03/28 09:39:09;;;;;;;0.82;0.82;;;11.40;84.50;;;;;;4824019;29;20209;-76
2021/03/28 09:42:16;;;;;;;0.90;0.90;;;11.60;95.30;;;;;;4896633;29;20231;-74
2021/03/28 09:45:06;;;;;;;0.80;0.80;;;11.20;82.40;;;;;;4899541;29;20283;-75
2021/03/28 09:47:42;;;;;;;0.90;0.90;;;11.40;84.20;;;;;;4897936;29;20203;-74
2021/03/28 09:50:23;;;;;;;0.80;0.80;;;11.30;93.90;;;;;;4901079;29;20211;-75
2021/03/28 09:53:04;;;;;;;0.90;0.90;;;11.50;84.20;;;;;;4901403;29;20823;-76
2021/03/28 09:56:29;;;;;;;0.90;0.90;;;11.50;85.00;;;;;;4907914;29;20294;-76
2021/03/28 09:59:23;;;;;;;0.90;0.90;;;11.40;96.50;;;;;;4883227;29;20214;-78
2021/03/28 10:02:01;;;;;;;0.85;0.85;;;11.50;85.00;;;;;;4900214;29;20227;-76
2021/03/28 10:04:48;;;;;;;0.90;0.90;;;11.60;84.80;;;;;;4899307;29;20239;-77
2021/03/28 10:07:24;;;;;;;0.80;0.80;;;11.60;85.80;;;;;;4899861;29;20203;-76
2021/03/28 10:10:03;;;;;;;1.00;1.00;;;11.50;87.30;;;;;;4895360;29;20223;-76
2021/03/28 10:12:42;;;;;;;0.70;0.70;;;11.30;88.00;;;;;;4899092;29;20242;-76
2021/03/28 10:15:18;;;;;;;0.80;0.80;;;11.30;86.20;;;;;;4897776;29;20268;-76
2021/03/28 10:18:00;;;;;;;0.90;0.90;;;11.80;97.20;;;;;;4898468;29;20246;-76
2021/03/28 10:20:44;;;;;;;0.80;0.80;;;11.60;96.90;;;;;;4898276;29;20211;-75
2021/03/28 10:23:28;;;;;;;0.70;0.70;;;11.50;86.70;;;;;;4897883;29;20214;-73
2021/03/28 10:26:40;;;;;;;0.90;0.90;;;12.10;96.10;;;;;;4898400;29;20210;-74
2021/03/28 10:29:42;;;;;;;0.85;0.85;;;11.60;85.80;;;;;;4906875;29;20207;-74
2021/03/28 10:32:20;;;;;;;0.77;0.77;;;11.90;83.40;;;;;;4912692;29;20226;-75
2021/03/28 10:35:03;;;;;;;0.90;0.90;;;12.10;83.80;;;;;;4916053;29;20297;-75
2021/03/28 10:37:46;;;;;;;0.70;0.70;;;12.10;82.50;;;;;;4916406;29;20202;-75
2021/03/28 10:40:29;;;;;;;0.55;0.55;;;12.00;94.30;;;;;;4916548;29;20266;-75
2021/03/28 10:43:06;;;;;;;0.93;0.93;;;11.80;80.90;;;;;;4916266;29;20206;-77
2021/03/28 10:46:14;;;;;;;0.80;0.80;;;11.70;82.00;;;;;;4916385;29;20258;-76
2021/03/28 10:49:21;;;;;;;0.90;0.90;;;11.70;82.10;;;;;;4916397;29;20206;-75
2021/03/28 10:52:29;;;;;;;0.80;0.80;;;11.90;81.70;;;;;;4916629;29;20226;-75
2021/03/28 10:55:29;;;;;;;0.80;0.80;;;12.40;80.00;;;;;;4916278;29;20229;-75
2021/03/28 10:58:51;;;;;;;0.70;0.70;;;12.50;77.90;;;;;;4916397;29;20278;-75
2021/03/28 11:01:55;;;;;;;0.70;0.70;;;12.50;78.30;;;;;;4916367;29;20260;-75
2021/03/28 11:04:54;;;;;;;0.82;0.82;;;12.20;78.20;;;;;;4915895;29;20237;-75
2021/03/28 11:07:45;;;;;;;0.80;0.80;;;12.40;79.30;;;;;;4916072;29;20668;-76
2021/03/28 11:10:41;;;;;;;0.70;0.70;;;12.30;79.00;;;;;;4913789;29;20219;-77
2021/03/28 11:13:39;;;;;;;0.60;0.60;;;12.20;79.90;;;;;;4915671;29;20203;-75
2021/03/28 11:16:24;;;;;;;1.00;1.00;;;12.20;79.70;;;;;;4915162;29;20214;-75
2021/03/28 11:19:31;;;;;;;0.70;0.70;;;12.20;80.20;;;;;;4915301;29;20305;-75
2021/03/28 11:22:20;;;;;;;0.80;0.80;;;12.10;79.60;;;;;;4915539;29;20226;-76
2021/03/28 11:25:01;;;;;;;0.90;0.90;;;12.20;79.80;;;;;;4915167;29;20255;-75
2021/03/28 11:28:00;;;;;;;0.60;0.60;;;12.30;80.10;;;;;;4915969;29;20206;-74
2021/03/28 11:30:35;;;;;;;0.80;0.80;;;12.60;94.30;;;;;;4915586;29;20211;-75
2021/03/28 11:33:10;;;;;;;0.60;0.60;;;;;;;;;;4905762;29;20211;-75
2021/03/28 11:35:40;;;;;;;0.50;0.50;;;13.00;92.80;;;;;;4895103;29;20207;-75
2021/03/28 11:38:31;;;;;;;0.70;0.70;;;12.80;75.90;;;;;;4889653;29;20214;-75
2021/03/28 11:41:39;;;;;;;0.80;0.80;;;12.40;88.60;;;;;;4877966;29;20279;-76
2021/03/28 11:44:25;;;;;;;0.60;0.60;;;12.70;91.40;;;;;;4854992;29;20283;-75
2021/03/28 11:47:00;;;;;;;0.95;0.95;;;12.80;74.20;;;;;;4878203;29;20296;-75
2021/03/28 11:49:46;;;;;;;0.60;0.60;;;12.80;91.00;;;;;;4877815;29;20212;-75
2021/03/28 11:52:19;;;;;;;0.63;0.63;;;12.70;72.80;;;;;;4877710;29;20232;-75
2021/03/28 11:55:34;;;;;;;0.70;0.70;;;12.70;71.80;;;;;;4877423;29;20756;-75
2021/03/28 11:58:27;;;;;;;0.70;0.70;;;12.90;72.40;;;;;;4877876;29;20699;-75
2021/03/28 12:00:55;;;;;;;0.75;0.75;;;12.90;69.10;;;;;;4874121;29;20235;-75
2021/03/28 12:03:34;;;;;;;0.60;0.60;;;12.70;68.60;;;;;;4877771;29;20231;-75
2021/03/28 12:06:08;;;;;;;0.60;0.60;;;12.70;70.70;;;;;;4877266;29;20681;-75
2021/03/28 12:08:56;;;;;;;0.80;0.80;;;12.60;90.10;;;;;;4877538;29;20212;-75
2021/03/28 12:11:45;;;;;;;0.75;0.75;;;12.60;90.50;;;;;;4877300;29;20240;-75
2021/03/28 12:14:35;;;;;;;0.85;0.85;;;12.60;90.90;;;;;;4877797;29;20200;-75
2021/03/28 12:17:20;;;;;;;0.90;0.90;;;12.60;91.30;;;;;;4874561;29;20212;-75
2021/03/28 12:19:54;;;;;;;0.88;0.88;;;12.60;91.30;;;;;;4877332;29;20215;-76
2021/03/28 12:22:25;;;;;;;0.60;0.60;;;12.70;73.60;;;;;;4877309;29;20283;-76
2021/03/28 12:25:02;;;;;;;0.80;0.80;;;12.60;90.90;;;;;;4877024;29;20276;-75
2021/03/28 12:28:02;;;;;;;1.00;1.00;;;12.70;72.60;;;;;;4877417;29;20218;-75
2021/03/28 12:30:33;;;;;;;0.90;0.90;;;12.90;91.20;;;;;;4881414;29;20633;-75
2021/03/28 12:33:06;;;;;;;0.70;0.70;;;12.80;73.60;;;;;;4881653;29;20219;-75
2021/03/28 12:35:52;;;;;;;0.60;0.60;;;12.70;73.60;;;;;;4880686;29;20203;-76
2021/03/28 12:38:33;;;;;;;0.60;0.60;;;12.90;91.70;;;;;;4880985;29;20742;-75
2021/03/28 12:41:21;;;;;;;0.68;0.68;;;13.00;92.20;;;;;;4880941;29;20754;-76
2021/03/28 12:43:55;;;;;;;0.80;0.80;;;12.90;91.90;;;;;;4881006;29;20231;-76
2021/03/28 12:46:41;;;;;;;0.55;0.55;;;13.00;75.00;;;;;;4880565;29;20240;-76
2021/03/28 12:49:16;;;;;;;0.60;0.60;;;;;;;;;;4880947;29;20276;-75
2021/03/28 12:51:48;;;;;;;0.60;0.60;;;13.60;73.10;;;;;;4880986;29;20235;-78
2021/03/28 12:54:25;;;;;;;0.50;0.50;;;13.80;75.70;;;;;;4880932;29;20267;-76
2021/03/28 12:56:57;;;;;;;0.60;0.60;;;13.70;75.00;;;;;;4880393;29;20207;-75
2021/03/28 12:59:37;;;;;;;0.60;0.60;;;13.70;75.70;;;;;;4880506;29;20713;-75
2021/03/28 13:02:19;;;;;;;0.68;0.68;;;13.50;75.70;;;;;;4880267;29;20247;-76
2021/03/28 13:04:53;;;;;;;0.55;0.55;;;13.20;77.00;;;;;;4880281;29;20220;-76
2021/03/28 13:07:48;;;;;;;0.60;0.60;;;13.00;79.30;;;;;;4880573;29;20353;-75
2021/03/28 13:10:21;;;;;;;0.60;0.60;;;12.90;96.20;;;;;;4837135;29;20212;-76
2021/03/28 13:13:04;;;;;;;0.50;0.50;;;12.90;79.60;;;;;;4880551;29;20212;-76
2021/03/28 13:15:42;;;;;;;0.50;0.50;;;13.10;79.80;;;;;;4880172;29;20292;-76
2021/03/28 13:18:23;;;;;;;0.60;0.60;;;13.20;79.80;;;;;;4880228;29;20239;-76
2021/03/28 13:20:53;;;;;;;0.60;0.60;;;13.10;80.50;;;;;;4880797;29;20283;-76
2021/03/28 13:23:51;;;;;;;0.70;0.70;;;13.40;79.70;;;;;;4880406;29;20212;-76
2021/03/28 13:26:22;;;;;;;0.65;0.65;;;13.20;80.10;;;;;;4879944;29;20208;-75
2021/03/28 13:29:01;;;;;;;0.80;0.80;;;13.40;79.40;;;;;;4880710;29;20211;-76
2021/03/28 13:31:51;;;;;;;0.73;0.73;;;13.50;78.80;;;;;;4880276;29;20630;-76
2021/03/28 13:34:23;;;;;;;0.70;0.70;;;13.60;79.50;;;;;;4880233;29;20224;-76
2021/03/28 13:37:03;;;;;;;0.50;0.50;;;14.10;94.10;;;;;;4880111;29;20212;-76
2021/03/28 13:39:32;;;;;;;0.50;0.50;;;13.70;91.70;;;;;;4879917;29;20498;-76
2021/03/28 13:42:14;;;;;;;0.50;0.50;;;13.90;88.60;;;;;;4879593;29;20584;-76
2021/03/28 13:44:52;;;;;;;0.60;0.60;;;13.80;88.20;;;;;;4879878;29;20231;-76
2021/03/28 13:47:36;;;;;;;0.60;0.60;;;13.60;88.80;;;;;;4879731;29;20207;-76
2021/03/28 13:50:40;;;;;;;0.60;0.60;;;13.60;87.00;;;;;;4880105;29;20207;-76
2021/03/28 13:53:27;;;;;;;0.70;0.70;;;13.50;86.70;;;;;;4879780;29;20203;-76
2021/03/28 13:56:17;;;;;;;0.50;0.50;;;13.80;86.30;;;;;;4879796;29;20267;-76
2021/03/28 13:59:18;;;;;;;0.50;0.50;;;14.10;88.10;;;;;;4879812;29;20607;-75
2021/03/28 14:01:49;;;;;;;0.60;0.60;;;14.10;93.60;;;;;;4880782;29;20240;-76
2021/03/28 14:04:37;;;;;;;0.60;0.60;;;14.20;93.10;;;;;;4880829;29;20651;-76
2021/03/28 14:07:21;;;;;;;0.60;0.60;;;14.10;87.10;;;;;;4881129;29;20212;-79
2021/03/28 14:09:53;;;;;;;0.60;0.60;;;14.10;94.90;;;;;;4881572;29;20615;-76
2021/03/28 14:12:35;;;;;;;0.70;0.70;;;14.30;94.80;;;;;;4900140;29;20289;-77
2021/03/28 14:15:27;;;;;;;0.50;0.50;;;13.90;93.80;;;;;;4913471;29;20293;-76
2021/03/28 14:17:59;;;;;;;0.50;0.50;;;13.60;93.80;;;;;;4919815;29;20206;-77
2021/03/28 14:20:34;;;;;;;0.60;0.60;;;13.50;94.20;;;;;;4918339;29;20214;-76
2021/03/28 14:23:14;;;;;;;0.60;0.60;;;13.60;93.60;;;;;;4917055;29;20230;-77
2021/03/28 14:25:44;;;;;;;0.60;0.60;;;13.50;94.60;;;;;;4916596;29;20278;-77
2021/03/28 14:28:42;;;;;;;0.60;0.60;;;13.60;94.30;;;;;;4916555;29;20262;-78
2021/03/28 14:31:30;;;;;;;0.60;0.60;;;13.90;93.90;;;;;;4911404;29;20436;-75
2021/03/28 14:34:28;;;;;;;0.52;0.52;;;14.00;93.50;;;;;;4916477;29;20293;-76
2021/03/28 14:37:25;;;;;;;0.60;0.60;;;14.30;91.80;;;;;;4891345;29;20671;-76
2021/03/28 14:40:27;;;;;;;0.57;0.57;;;14.40;89.10;;;;;;4916810;29;20261;-75
2021/03/28 14:43:15;;;;;;;0.57;0.57;;;14.10;87.10;;;;;;4916233;29;20206;-76
2021/03/28 14:45:54;;;;;;;0.60;0.60;;;14.00;90.40;;;;;;4915540;29;20226;-75
2021/03/28 14:48:30;;;;;;;0.60;0.60;;;13.90;90.70;;;;;;4916068;29;20262;-75
2021/03/28 14:51:02;;;;;;;0.50;0.50;;;13.60;90.80;;;;;;4916213;29;20331;-76
2021/03/28 14:53:39;;;;;;;0.50;0.50;;;13.80;89.50;;;;;;4915371;29;20212;-75
2021/03/28 14:56:19;;;;;;;0.60;0.60;;;13.90;85.10;;;;;;4915533;29;20238;-75
2021/03/28 14:59:14;;;;;;;0.60;0.60;;;13.90;76.40;;;;;;4916154;29;20273;-74
2021/03/28 15:01:48;;;;;;;0.50;0.50;;;14.30;81.10;;;;;;4916075;29;20290;-75
2021/03/28 15:04:36;;;;;;;0.50;0.50;;;14.30;82.40;;;;;;4915959;29;20229;-74
2021/03/28 15:07:26;;;;;;;0.50;0.50;;;14.40;81.30;;;;;;4915887;29;20266;-75
2021/03/28 15:10:03;;;;;;;0.57;0.57;;;14.10;82.10;;;;;;4915940;29;20744;-78
2021/03/28 15:12:34;;;;;;;0.55;0.55;;;14.10;82.70;;;;;;4916635;29;20290;-78
2021/03/28 15:15:08;;;;;;;0.50;0.50;;;14.20;82.50;;;;;;4901025;29;20211;-75
2021/03/28 15:17:41;;;;;;;0.50;0.50;;;14.50;85.90;;;;;;4891401;29;20216;-77
2021/03/28 15:20:28;;;;;;;0.50;0.50;;;14.50;78.70;;;;;;4896875;29;20211;-74
2021/03/28 15:23:00;;;;;;;0.40;0.40;;;14.60;78.70;;;;;;4896661;29;20271;-75
2021/03/28 15:25:34;;;;;;;0.50;0.50;;;14.80;80.20;;;;;;4896643;29;20579;-76
2021/03/28 15:28:05;;;;;;;0.50;0.50;;;14.50;90.00;;;;;;4896543;29;20683;-75
2021/03/28 15:30:36;;;;;;;0.50;0.50;;;14.70;90.30;;;;;;4896858;29;20211;-76
2021/03/28 15:33:27;;;;;;;0.50;0.50;;;14.80;99.90;;;;;;4896410;29;20235;-76
2021/03/28 15:36:08;;;;;;;0.52;0.52;;;14.90;90.60;;;;;;4896543;29;20207;-76
2021/03/28 15:38:57;;;;;;;0.50;0.50;;;14.80;88.10;;;;;;4896777;29;20407;-76
2021/03/28 15:41:39;;;;;;;0.60;0.60;;;14.70;88.60;;;;;;4896407;29;20282;-73
2021/03/28 15:44:34;;;;;;;0.40;0.40;;;14.60;88.40;;;;;;4896566;29;20208;-75
2021/03/28 15:47:09;;;;;;;0.60;0.60;;;14.80;87.30;;;;;;4896858;29;20214;-75
2021/03/28 15:50:12;;;;;;;0.40;0.40;;;14.70;88.50;;;;;;4897376;29;20278;-75
2021/03/28 15:53:03;;;;;;;0.50;0.50;;;14.70;87.90;;;;;;4894782;29;20203;-78
2021/03/28 15:55:43;;;;;;;0.60;0.60;;;14.80;90.20;;;;;;4889142;29;20627;-76
2021/03/28 15:58:33;;;;;;;0.50;0.50;;;14.70;92.30;;;;;;4877938;29;20208;-75
2021/03/28 16:01:14;;;;;;;0.40;0.40;;;14.60;90.40;;;;;;4878002;29;20228;-76
2021/03/28 16:04:20;;;;;;;0.50;0.50;;;14.50;90.70;;;;;;4877226;29;20215;-77
2021/03/28 16:07:07;;;;;;;0.50;0.50;;;14.50;90.10;;;;;;4801508;29;20206;-76
2021/03/28 16:09:54;;;;;;;0.50;0.50;;;14.40;88.60;;;;;;4870583;29;20212;-76
2021/03/28 16:12:58;;;;;;;0.50;0.50;;;14.30;89.90;;;;;;4877331;29;20240;-75
2021/03/28 16:15:37;;;;;;;0.40;0.40;;;14.30;89.40;;;;;;4874913;29;20208;-75
2021/03/28 16:18:34;;;;;;;0.55;0.55;;;14.10;90.10;;;;;;4877379;29;20215;-75
2021/03/28 16:21:36;;;;;;;0.60;0.60;;;14.20;90.90;;;;;;4877426;29;20227;-75
2021/03/28 16:24:13;;;;;;;0.50;0.50;;;14.30;90.70;;;;;;4877113;29;20207;-75
2021/03/28 16:26:52;;;;;;;0.60;0.60;;;14.30;89.10;;;;;;4896438;29;20744;-76
2021/03/28 16:29:32;;;;;;;0.60;0.60;;;14.20;90.90;;;;;;4911878;29;20211;-77
2021/03/28 16:32:37;;;;;;;0.52;0.52;;;14.20;90.10;;;;;;4916688;29;20588;-75
2021/03/28 16:35:17;;;;;;;0.50;0.50;;;14.20;91.60;;;;;;4918562;29;20660;-80
2021/03/28 16:37:48;;;;;;;0.40;0.40;;;14.00;90.80;;;;;;4917932;29;20206;-80
2021/03/28 16:40:23;;;;;;;0.50;0.50;;;14.10;91.30;;;;;;4917117;29;20210;-78
2021/03/28 16:42:58;;;;;;;0.40;0.40;;;14.10;90.90;;;;;;4915974;29;20258;-79
2021/03/28 16:45:35;;;;;;;0.50;0.50;;;13.90;93.50;;;;;;4917003;29;20225;-78
2021/03/28 16:48:12;;;;;;;0.60;0.60;;;14.00;94.10;;;;;;4919988;29;20221;-78
2021/03/28 16:50:57;;;;;;;0.50;0.50;;;14.00;94.00;;;;;;4919345;29;20644;-78
2021/03/28 16:53:46;;;;;;;0.40;0.40;;;13.90;94.00;;;;;;4916387;29;20219;-77
2021/03/28 16:56:32;;;;;;;0.57;0.57;;;13.90;94.10;;;;;;4919222;29;20212;-78
2021/03/28 16:59:17;;;;;;;0.57;0.57;;;13.90;93.30;;;;;;4919481;29;20203;-78
2021/03/28 17:01:46;;;;;;;0.70;0.70;;;13.90;95.10;;;;;;4919204;29;20783;-77
2021/03/28 17:04:35;;;;;;;0.50;0.50;;;13.90;94.20;;;;;;4918961;29;20258;-77
2021/03/28 17:07:15;;;;;;;0.63;0.63;;;13.50;86.20;;;;;;4921557;29;20214;-77
2021/03/28 17:10:12;;;;;;;0.50;0.50;;;13.50;82.20;;;;;;4920223;29;20214;-76
2021/03/28 17:12:48;;;;;;;0.50;0.50;;;13.40;88.10;;;;;;4919806;29;20206;-78
2021/03/28 17:15:36;;;;;;;0.50;0.50;;;13.40;84.00;;;;;;4902718;29;20630;-78
2021/03/28 17:18:09;;;;;;;0.55;0.55;;;13.40;83.50;;;;;;4904097;29;20215;-78
2021/03/28 17:21:04;;;;;;;0.50;0.50;;;13.50;86.20;;;;;;4903586;29;20290;-78
2021/03/28 17:23:47;;;;;;;0.40;0.40;;;13.50;84.90;;;;;;4902544;29;20223;-78
2021/03/28 17:26:21;;;;;;;0.50;0.50;;;13.60;86.60;;;;;;4905515;29;20252;-78
2021/03/28 17:28:48;;;;;;;0.50;0.50;;;13.50;84.60;;;;;;4904362;29;20217;-77
2021/03/28 17:31:41;;;;;;;0.40;0.40;;;13.20;85.00;;;;;;4904149;29;20231;-77
2021/03/28 17:34:18;;;;;;;0.50;0.50;;;13.30;93.50;;;;;;4904413;29;20263;-77
2021/03/28 17:36:53;;;;;;;0.50;0.50;;;13.20;96.40;;;;;;4901876;29;20215;-78
2021/03/28 17:39:49;;;;;;;0.50;0.50;;;13.20;95.90;;;;;;4901561;29;20673;-77
2021/03/28 17:42:37;;;;;;;0.60;0.60;;;;;;;;;;4901188;29;20654;-76
2021/03/28 17:45:05;;;;;;;0.60;0.60;;;13.10;91.60;;;;;;4900684;29;20235;-77
2021/03/28 17:47:52;;;;;;;0.40;0.40;;;13.20;99.90;;;;;;4900714;29;20701;-77
2021/03/28 17:50:40;;;;;;;0.55;0.55;;;13.10;86.00;;;;;;4901308;29;20199;-75
2021/03/28 17:53:32;;;;;;;0.40;0.40;;;13.20;90.00;;;;;;4899745;29;20721;-77
2021/03/28 17:56:11;;;;;;;0.50;0.50;;;13.20;89.90;;;;;;4900566;29;20204;-78
2021/03/28 17:58:52;;;;;;;0.60;0.60;;;13.20;88.00;;;;;;4901654;29;20239;-77
2021/03/28 18:01:24;;;;;;;0.60;0.60;;;13.00;87.30;;;;;;4903123;29;20231;-75
2021/03/28 18:03:53;;;;;;;0.40;0.40;;;13.00;87.80;;;;;;4902992;29;20290;-77
2021/03/28 18:06:24;;;;;;;0.50;0.50;;;13.00;90.50;;;;;;4903880;29;20227;-78
2021/03/28 18:08:59;;;;;;;0.52;0.52;;;13.10;89.60;;;;;;4902927;29;20263;-78
2021/03/28 18:11:29;;;;;;;0.52;0.52;;;13.00;88.70;;;;;;4902023;29;20839;-78
2021/03/28 18:14:15;;;;;;;0.60;0.60;;;13.00;90.90;;;;;;4901696;29;20291;-78
2021/03/28 18:16:42;;;;;;;0.40;0.40;;;13.10;90.40;;;;;;4902195;29;20235;-76
2021/03/28 18:19:09;;;;;;;0.60;0.60;;;13.10;90.50;;;;;;4901709;29;20255;-77
2021/03/28 18:21:55;;;;;;;0.65;0.65;;;13.10;90.60;;;;;;4901488;29;20239;-75
2021/03/28 18:24:46;;;;;;;0.50;0.50;;;13.10;90.40;;;;;;4901928;29;20204;-76
2021/03/28 18:27:34;;;;;;;0.50;0.50;;;13.20;89.60;;;;;;4902062;29;20207;-76
2021/03/28 18:30:07;;;;;;;0.70;0.70;;;13.10;90.60;;;;;;4901993;29;20215;-75
2021/03/28 18:33:03;;;;;;;0.70;0.70;;;13.20;89.10;;;;;;4902286;29;20199;-75
2021/03/28 18:35:31;;;;;;;0.60;0.60;;;13.20;90.90;;;;;;4899910;29;20263;-76
2021/03/28 18:38:00;;;;;;;0.50;0.50;;;13.20;91.30;;;;;;4901493;29;20258;-76
2021/03/28 18:40:34;;;;;;;0.60;0.60;;;13.20;90.20;;;;;;4900328;29;20283;-76
2021/03/28 18:43:05;;;;;;;0.50;0.50;;;13.20;91.70;;;;;;4899761;29;20206;-75
2021/03/28 18:45:39;;;;;;;0.70;0.70;;;13.20;92.20;;;;;;4899077;29;20283;-76
2021/03/28 18:48:32;;;;;;;0.60;0.60;;;13.30;90.70;;;;;;4900212;29;20210;-75